Terminal Aerodrome Forecast
Issued by NWS

Current Version | Previous Version | Graphics & Text | Print | Product List | Glossary On
Versions: 1 2 3 4 5 6 7 8 9 10 11 12 13 14 15 16 17 18 19 20 21 22 23 24
000
FTUS41 KRNK 060520
TAFLWB
TAF
KLWB 060520Z 0606/0706 04003KT P6SM SCT070 OVC100
     FM060900 00000KT 5SM BR SCT100
      TEMPO 0610/0612 3SM BR
     FM061300 VRB03KT P6SM SCT060
     FM061700 08004KT P6SM VCTS BKN050CB
     FM070000 VRB03KT P6SM -SHRA BKN045 BKN080
     FM070400 00000KT 5SM BR BKN100=

USA.gov is the U.S. government's official web portal to all federal, state and local government web resources and services.